sensor_id;sensor_type;location;lat;lon;timestamp;pressure;altitude;pressure_sealevel;temperature;humidity
42587;BME280;28216;53.362;-6.288;2023-05-11T00:02:12;101099.03;;;11.80;100.00
42587;BME280;28216;53.362;-6.288;2023-05-11T00:04:38;101102.41;;;11.90;100.00
42587;BME280;28216;53.362;-6.288;2023-05-11T00:07:03;101107.00;;;11.96;100.00
42587;BME280;28216;53.362;-6.288;2023-05-11T00:09:29;101097.81;;;11.92;100.00
42587;BME280;28216;53.362;-6.288;2023-05-11T00:11:55;101111.94;;;11.99;100.00
42587;BME280;28216;53.362;-6.288;2023-05-11T00:14:20;101097.03;;;12.16;100.00
42587;BME280;28216;53.362;-6.288;2023-05-11T00:16:46;101111.03;;;12.25;100.00
42587;BME280;28216;53.362;-6.288;2023-05-11T00:19:11;101103.97;;;12.25;100.00
42587;BME280;28216;53.362;-6.288;2023-05-11T00:21:37;101102.13;;;12.18;100.00
42587;BME280;28216;53.362;-6.288;2023-05-11T00:24:02;101105.56;;;12.10;100.00
42587;BME280;28216;53.362;-6.288;2023-05-11T00:26:28;101105.22;;;12.05;100.00
42587;BME280;28216;53.362;-6.288;2023-05-11T00:28:53;101109.31;;;11.99;100.00
42587;BME280;28216;53.362;-6.288;2023-05-11T00:31:19;101109.13;;;11.93;100.00
42587;BME280;28216;53.362;-6.288;2023-05-11T00:33:44;101110.28;;;11.90;100.00
42587;BME280;28216;53.362;-6.288;2023-05-11T00:36:10;101113.19;;;11.87;100.00
42587;BME280;28216;53.362;-6.288;2023-05-11T00:38:35;101110.81;;;11.76;100.00
42587;BME280;28216;53.362;-6.288;2023-05-11T00:41:05;101108.34;;;11.74;100.00
42587;BME280;28216;53.362;-6.288;2023-05-11T00:43:30;101114.25;;;11.68;100.00
42587;BME280;28216;53.362;-6.288;2023-05-11T00:45:56;101114.56;;;11.65;100.00
42587;BME280;28216;53.362;-6.288;2023-05-11T00:48:21;101112.13;;;11.72;100.00
42587;BME280;28216;53.362;-6.288;2023-05-11T00:50:47;101108.16;;;11.68;100.00
42587;BME280;28216;53.362;-6.288;2023-05-11T00:53:13;101109.50;;;11.72;100.00
42587;BME280;28216;53.362;-6.288;2023-05-11T00:55:38;101107.50;;;11.66;100.00
42587;BME280;28216;53.362;-6.288;2023-05-11T00:58:04;101105.84;;;11.65;100.00
42587;BME280;28216;53.362;-6.288;2023-05-11T01:00:30;101110.28;;;11.64;100.00
42587;BME280;28216;53.362;-6.288;2023-05-11T01:02:56;101109.47;;;11.64;100.00
42587;BME280;28216;53.362;-6.288;2023-05-11T01:05:25;101121.72;;;11.55;100.00
42587;BME280;28216;53.362;-6.288;2023-05-11T01:08:23;101125.34;;;11.54;100.00
42587;BME280;28216;53.362;-6.288;2023-05-11T01:10:57;101130.53;;;11.46;100.00
42587;BME280;28216;53.362;-6.288;2023-05-11T01:13:34;101124.97;;;11.49;100.00
42587;BME280;28216;53.362;-6.288;2023-05-11T01:16:07;101129.91;;;11.52;100.00
42587;BME280;28216;53.362;-6.288;2023-05-11T01:18:42;101135.03;;;11.54;100.00
42587;BME280;28216;53.362;-6.288;2023-05-11T01:21:12;101134.34;;;11.52;100.00
42587;BME280;28216;53.362;-6.288;2023-05-11T01:29:35;101134.34;;;11.52;100.00
42587;BME280;28216;53.362;-6.288;2023-05-11T01:32:11;101135.03;;;11.54;100.00
42587;BME280;28216;53.362;-6.288;2023-05-11T01:34:40;101129.66;;;11.63;100.00
42587;BME280;28216;53.362;-6.288;2023-05-11T01:37:17;101145.41;;;11.63;100.00
42587;BME280;28216;53.362;-6.288;2023-05-11T01:39:54;101135.88;;;11.62;100.00
42587;BME280;28216;53.362;-6.288;2023-05-11T01:42:27;101133.56;;;11.59;100.00
42587;BME280;28216;53.362;-6.288;2023-05-11T01:44:56;101134.50;;;11.50;100.00
42587;BME280;28216;53.362;-6.288;2023-05-11T01:47:24;101132.69;;;11.51;100.00
42587;BME280;28216;53.362;-6.288;2023-05-11T01:49:51;101132.19;;;11.47;100.00
42587;BME280;28216;53.362;-6.288;2023-05-11T01:52:20;101129.69;;;11.37;100.00
42587;BME280;28216;53.362;-6.288;2023-05-11T01:54:48;101139.19;;;11.38;100.00
42587;BME280;28216;53.362;-6.288;2023-05-11T01:57:16;101147.03;;;11.30;100.00
42587;BME280;28216;53.362;-6.288;2023-05-11T01:59:43;101143.22;;;11.25;100.00
42587;BME280;28216;53.362;-6.288;2023-05-11T02:02:09;101146.66;;;11.25;100.00
42587;BME280;28216;53.362;-6.288;2023-05-11T02:04:37;101142.53;;;11.23;100.00
42587;BME280;28216;53.362;-6.288;2023-05-11T02:07:06;101146.81;;;11.24;100.00
42587;BME280;28216;53.362;-6.288;2023-05-11T02:09:33;101150.94;;;11.26;100.00
42587;BME280;28216;53.362;-6.288;2023-05-11T02:12:00;101148.09;;;11.20;100.00
42587;BME280;28216;53.362;-6.288;2023-05-11T02:14:28;101153.03;;;11.23;100.00
42587;BME280;28216;53.362;-6.288;2023-05-11T02:16:59;101147.78;;;11.23;100.00
42587;BME280;28216;53.362;-6.288;2023-05-11T02:19:25;101154.38;;;11.27;100.00
42587;BME280;28216;53.362;-6.288;2023-05-11T02:21:52;101149.44;;;11.24;100.00
42587;BME280;28216;53.362;-6.288;2023-05-11T02:24:19;101148.94;;;11.20;100.00
42587;BME280;28216;53.362;-6.288;2023-05-11T02:26:45;101152.84;;;11.16;100.00
42587;BME280;28216;53.362;-6.288;2023-05-11T02:29:11;101152.22;;;11.04;100.00
42587;BME280;28216;53.362;-6.288;2023-05-11T02:31:41;101160.47;;;11.09;100.00
42587;BME280;28216;53.362;-6.288;2023-05-11T02:34:26;101160.72;;;11.16;100.00
42587;BME280;28216;53.362;-6.288;2023-05-11T02:36:55;101160.72;;;11.16;100.00
42587;BME280;28216;53.362;-6.288;2023-05-11T02:39:26;101159.28;;;11.22;100.00
42587;BME280;28216;53.362;-6.288;2023-05-11T02:41:55;101173.59;;;11.27;100.00
42587;BME280;28216;53.362;-6.288;2023-05-11T02:44:27;101169.38;;;11.34;100.00
42587;BME280;28216;53.362;-6.288;2023-05-11T02:46:54;101162.69;;;11.40;100.00
42587;BME280;28216;53.362;-6.288;2023-05-11T02:49:22;101166.31;;;11.47;100.00
42587;BME280;28216;53.362;-6.288;2023-05-11T02:51:49;101173.53;;;11.45;100.00
42587;BME280;28216;53.362;-6.288;2023-05-11T02:54:17;101180.94;;;11.50;100.00
42587;BME280;28216;53.362;-6.288;2023-05-11T02:56:43;101169.00;;;11.55;100.00
42587;BME280;28216;53.362;-6.288;2023-05-11T02:59:10;101176.41;;;11.60;100.00
42587;BME280;28216;53.362;-6.288;2023-05-11T03:01:37;101173.47;;;11.63;100.00
42587;BME280;28216;53.362;-6.288;2023-05-11T03:04:04;101175.78;;;11.66;100.00
42587;BME280;28216;53.362;-6.288;2023-05-11T03:06:30;101172.19;;;11.67;100.00
42587;BME280;28216;53.362;-6.288;2023-05-11T03:08:56;101174.25;;;11.55;100.00
42587;BME280;28216;53.362;-6.288;2023-05-11T03:11:22;101158.81;;;11.52;100.00
42587;BME280;28216;53.362;-6.288;2023-05-11T03:13:48;101166.16;;;11.49;100.00
42587;BME280;28216;53.362;-6.288;2023-05-11T03:16:15;101160.88;;;11.40;100.00
42587;BME280;28216;53.362;-6.288;2023-05-11T03:18:40;101166.44;;;11.37;100.00
42587;BME280;28216;53.362;-6.288;2023-05-11T03:21:07;101157.78;;;11.45;100.00
42587;BME280;28216;53.362;-6.288;2023-05-11T03:23:35;101165.03;;;11.51;100.00
42587;BME280;28216;53.362;-6.288;2023-05-11T03:26:02;101162.41;;;11.51;100.00
42587;BME280;28216;53.362;-6.288;2023-05-11T03:28:29;101169.31;;;11.52;100.00
42587;BME280;28216;53.362;-6.288;2023-05-11T03:30:55;101162.41;;;11.51;100.00
42587;BME280;28216;53.362;-6.288;2023-05-11T03:33:20;101167.16;;;11.48;100.00
42587;BME280;28216;53.362;-6.288;2023-05-11T03:35:48;101169.25;;;11.44;100.00
42587;BME280;28216;53.362;-6.288;2023-05-11T03:38:14;101171.94;;;11.52;100.00
42587;BME280;28216;53.362;-6.288;2023-05-11T03:40:41;101169.56;;;11.41;100.00
42587;BME280;28216;53.362;-6.288;2023-05-11T03:43:10;101170.91;;;11.45;100.00
42587;BME280;28216;53.362;-6.288;2023-05-11T03:45:37;101167.00;;;11.49;100.00
42587;BME280;28216;53.362;-6.288;2023-05-11T03:48:04;101167.78;;;11.41;100.00
42587;BME280;28216;53.362;-6.288;2023-05-11T03:50:31;101171.06;;;11.43;100.00
42587;BME280;28216;53.362;-6.288;2023-05-11T03:52:58;101167.63;;;11.43;100.00
42587;BME280;28216;53.362;-6.288;2023-05-11T03:55:25;101164.53;;;11.48;100.00
42587;BME280;28216;53.362;-6.288;2023-05-11T03:57:51;101174.56;;;11.52;100.00
42587;BME280;28216;53.362;-6.288;2023-05-11T04:00:16;101165.00;;;11.43;100.00
42587;BME280;28216;53.362;-6.288;2023-05-11T04:02:42;101174.72;;;11.51;100.00
42587;BME280;28216;53.362;-6.288;2023-05-11T04:05:09;101164.56;;;11.56;100.00
42587;BME280;28216;53.362;-6.288;2023-05-11T04:07:36;101165.72;;;11.53;100.00
42587;BME280;28216;53.362;-6.288;2023-05-11T04:10:03;101174.25;;;11.55;100.00
42587;BME280;28216;53.362;-6.288;2023-05-11T04:12:28;101182.09;;;11.47;100.00
42587;BME280;28216;53.362;-6.288;2023-05-11T04:14:54;101172.41;;;11.48;100.00
42587;BME280;28216;53.362;-6.288;2023-05-11T04:17:19;101174.50;;;11.44;100.00
42587;BME280;28216;53.362;-6.288;2023-05-11T04:19:45;101172.19;;;11.41;100.00
42587;BME280;28216;53.362;-6.288;2023-05-11T04:22:10;101174.81;;;11.41;100.00
42587;BME280;28216;53.362;-6.288;2023-05-11T04:24:37;101179.50;;;11.55;100.00
42587;BME280;28216;53.362;-6.288;2023-05-11T04:27:02;101180.00;;;11.59;100.00
42587;BME280;28216;53.362;-6.288;2023-05-11T04:29:28;101176.56;;;11.58;100.00
42587;BME280;28216;53.362;-6.288;2023-05-11T04:31:54;101176.72;;;11.57;100.00
42587;BME280;28216;53.362;-6.288;2023-05-11T04:34:20;101176.72;;;11.57;100.00
42587;BME280;28216;53.362;-6.288;2023-05-11T04:36:49;101177.69;;;11.56;100.00
42587;BME280;28216;53.362;-6.288;2023-05-11T04:39:15;101183.25;;;11.53;100.00
42587;BME280;28216;53.362;-6.288;2023-05-11T04:41:42;101181.00;;;11.58;100.00
42587;BME280;28216;53.362;-6.288;2023-05-11T04:44:08;101188.22;;;11.56;100.00
42587;BME280;28216;53.362;-6.288;2023-05-11T04:46:34;101179.34;;;11.57;100.00
42587;BME280;28216;53.362;-6.288;2023-05-11T04:48:59;101182.94;;;11.56;100.00
42587;BME280;28216;53.362;-6.288;2023-05-11T04:51:25;101185.88;;;11.53;100.00
42587;BME280;28216;53.362;-6.288;2023-05-11T04:53:50;101183.31;;;11.61;100.00
42587;BME280;28216;53.362;-6.288;2023-05-11T04:56:16;101182.28;;;11.54;100.00
42587;BME280;28216;53.362;-6.288;2023-05-11T04:58:42;101194.94;;;11.58;100.00
42587;BME280;28216;53.362;-6.288;2023-05-11T05:01:07;101187.84;;;11.51;100.00
42587;BME280;28216;53.362;-6.288;2023-05-11T05:03:33;101191.03;;;11.62;100.00
42587;BME280;28216;53.362;-6.288;2023-05-11T05:05:58;101194.31;;;11.64;100.00
42587;BME280;28216;53.362;-6.288;2023-05-11T05:08:24;101193.56;;;11.72;100.00
42587;BME280;28216;53.362;-6.288;2023-05-11T05:10:49;101196.34;;;11.70;100.00
42587;BME280;28216;53.362;-6.288;2023-05-11T05:13:15;101193.25;;;11.75;100.00
42587;BME280;28216;53.362;-6.288;2023-05-11T05:15:43;101198.41;;;11.85;100.00
42587;BME280;28216;53.362;-6.288;2023-05-11T05:18:08;101196.28;;;11.88;100.00
42587;BME280;28216;53.362;-6.288;2023-05-11T05:20:34;101196.28;;;11.88;100.00
42587;BME280;28216;53.362;-6.288;2023-05-11T05:23:00;101196.75;;;11.84;100.00
42587;BME280;28216;53.362;-6.288;2023-05-11T05:25:26;101194.28;;;11.82;100.00
42587;BME280;28216;53.362;-6.288;2023-05-11T05:27:54;101202.31;;;11.81;100.00
42587;BME280;28216;53.362;-6.288;2023-05-11T05:30:19;101189.09;;;11.90;100.00
42587;BME280;28216;53.362;-6.288;2023-05-11T05:32:45;101195.47;;;11.88;100.00
42587;BME280;28216;53.362;-6.288;2023-05-11T05:35:10;101190.09;;;11.89;100.00
42587;BME280;28216;53.362;-6.288;2023-05-11T05:37:38;101194.81;;;11.86;100.00
42587;BME280;28216;53.362;-6.288;2023-05-11T05:40:27;101195.13;;;11.83;100.00
42587;BME280;28216;53.362;-6.288;2023-05-11T05:43:04;101189.69;;;11.84;100.00
42587;BME280;28216;53.362;-6.288;2023-05-11T05:45:30;101199.69;;;11.81;100.00
42587;BME280;28216;53.362;-6.288;2023-05-11T05:47:55;101192.31;;;11.84;100.00
42587;BME280;28216;53.362;-6.288;2023-05-11T05:50:21;101193.63;;;11.80;100.00
42587;BME280;28216;53.362;-6.288;2023-05-11T05:52:47;101192.31;;;11.84;100.00
42587;BME280;28216;53.362;-6.288;2023-05-11T05:55:12;101195.03;;;11.92;100.00
42587;BME280;28216;53.362;-6.288;2023-05-11T05:57:40;101194.25;;;12.00;100.00
42587;BME280;28216;53.362;-6.288;2023-05-11T06:00:06;101193.25;;;12.01;100.00
42587;BME280;28216;53.362;-6.288;2023-05-11T06:02:33;101199.81;;;11.97;100.00
42587;BME280;28216;53.362;-6.288;2023-05-11T06:05:02;101210.00;;;12.00;100.00
42587;BME280;28216;53.362;-6.288;2023-05-11T06:07:30;101199.81;;;11.97;100.00
42587;BME280;28216;53.362;-6.288;2023-05-11T06:09:55;101205.88;;;11.97;100.00
42587;BME280;28216;53.362;-6.288;2023-05-11T06:12:24;101210.19;;;12.06;100.00
42587;BME280;28216;53.362;-6.288;2023-05-11T06:14:49;101204.47;;;12.11;100.00
42587;BME280;28216;53.362;-6.288;2023-05-11T06:17:15;101202.19;;;12.16;100.00
42587;BME280;28216;53.362;-6.288;2023-05-11T06:19:44;101206.81;;;12.22;100.00
42587;BME280;28216;53.362;-6.288;2023-05-11T06:22:10;101199.25;;;12.19;100.00
42587;BME280;28216;53.362;-6.288;2023-05-11T06:24:36;101205.22;;;12.37;100.00
42587;BME280;28216;53.362;-6.288;2023-05-11T06:27:01;101205.25;;;12.54;100.00
42587;BME280;28216;53.362;-6.288;2023-05-11T06:29:32;101201.88;;;12.69;100.00
42587;BME280;28216;53.362;-6.288;2023-05-11T06:31:57;101204.03;;;12.98;100.00
42587;BME280;28216;53.362;-6.288;2023-05-11T06:34:23;101208.50;;;13.39;100.00
42587;BME280;28216;53.362;-6.288;2023-05-11T06:36:48;101214.84;;;13.85;100.00
42587;BME280;28216;53.362;-6.288;2023-05-11T06:39:14;101202.94;;;14.36;100.00
42587;BME280;28216;53.362;-6.288;2023-05-11T06:41:40;101208.75;;;14.62;100.00
42587;BME280;28216;53.362;-6.288;2023-05-11T06:44:05;101207.50;;;14.50;100.00
42587;BME280;28216;53.362;-6.288;2023-05-11T06:46:31;101207.81;;;14.55;100.00
42587;BME280;28216;53.362;-6.288;2023-05-11T06:48:59;101210.41;;;14.63;100.00
42587;BME280;28216;53.362;-6.288;2023-05-11T06:51:28;101210.66;;;14.46;100.00
42587;BME280;28216;53.362;-6.288;2023-05-11T06:53:54;101214.56;;;14.19;100.00
42587;BME280;28216;53.362;-6.288;2023-05-11T06:56:19;101214.56;;;14.11;100.00
42587;BME280;28216;53.362;-6.288;2023-05-11T06:58:48;101218.72;;;14.05;100.00
42587;BME280;28216;53.362;-6.288;2023-05-11T07:02:01;101212.28;;;14.08;100.00
42587;BME280;28216;53.362;-6.288;2023-05-11T07:04:29;101212.53;;;14.29;100.00
42587;BME280;28216;53.362;-6.288;2023-05-11T07:06:55;101220.41;;;14.45;100.00
42587;BME280;28216;53.362;-6.288;2023-05-11T07:09:23;101229.88;;;14.23;100.00
42587;BME280;28216;53.362;-6.288;2023-05-11T07:11:49;101234.53;;;14.13;100.00
42587;BME280;28216;53.362;-6.288;2023-05-11T07:14:18;101230.66;;;13.85;100.00
42587;BME280;28216;53.362;-6.288;2023-05-11T07:16:43;101238.59;;;13.60;100.00
42587;BME280;28216;53.362;-6.288;2023-05-11T07:19:10;101233.66;;;13.57;100.00
42587;BME280;28216;53.362;-6.288;2023-05-11T07:21:38;101237.81;;;13.44;100.00
42587;BME280;28216;53.362;-6.288;2023-05-11T07:24:04;101233.69;;;13.25;100.00
42587;BME280;28216;53.362;-6.288;2023-05-11T07:26:34;101238.78;;;13.26;100.00
42587;BME280;28216;53.362;-6.288;2023-05-11T07:29:00;101238.94;;;13.25;100.00
42587;BME280;28216;53.362;-6.288;2023-05-11T07:31:28;101238.63;;;13.28;100.00
42587;BME280;28216;53.362;-6.288;2023-05-11T07:33:54;101238.63;;;13.20;100.00
42587;BME280;28216;53.362;-6.288;2023-05-11T07:37:03;101242.53;;;13.16;100.00
42587;BME280;28216;53.362;-6.288;2023-05-11T07:39:15;101242.03;;;13.12;100.00
42587;BME280;28216;53.362;-6.288;2023-05-11T07:41:41;101249.59;;;12.99;100.00
42587;BME280;28216;53.362;-6.288;2023-05-11T07:44:07;101251.06;;;13.01;100.00
42587;BME280;28216;53.362;-6.288;2023-05-11T07:46:40;101251.75;;;13.03;100.00
42587;BME280;28216;53.362;-6.288;2023-05-11T07:49:06;101253.72;;;13.10;100.00
42587;BME280;28216;53.362;-6.288;2023-05-11T07:51:38;101250.59;;;13.14;100.00
42587;BME280;28216;53.362;-6.288;2023-05-11T07:54:05;101252.75;;;13.19;100.00
42587;BME280;28216;53.362;-6.288;2023-05-11T07:56:30;101256.75;;;13.39;100.00
42587;BME280;28216;53.362;-6.288;2023-05-11T07:58:56;101254.44;;;13.52;100.00
42587;BME280;28216;53.362;-6.288;2023-05-11T08:01:22;101254.38;;;13.77;100.00
42587;BME280;28216;53.362;-6.288;2023-05-11T08:03:49;101258.34;;;14.44;100.00
42587;BME280;28216;53.362;-6.288;2023-05-11T08:06:15;101254.31;;;14.87;100.00
42587;BME280;28216;53.362;-6.288;2023-05-11T08:08:42;101253.63;;;14.93;100.00
42587;BME280;28216;53.362;-6.288;2023-05-11T08:11:08;101256.50;;;14.76;100.00
42587;BME280;28216;53.362;-6.288;2023-05-11T08:13:34;101256.28;;;14.85;100.00
42587;BME280;28216;53.362;-6.288;2023-05-11T08:16:00;101252.09;;;15.22;100.00
42587;BME280;28216;53.362;-6.288;2023-05-11T08:18:25;101261.06;;;15.13;100.00
42587;BME280;28216;53.362;-6.288;2023-05-11T08:20:51;101258.13;;;15.08;100.00
42587;BME280;28216;53.362;-6.288;2023-05-11T08:23:16;101266.72;;;15.47;100.00
42587;BME280;28216;53.362;-6.288;2023-05-11T08:25:50;101253.44;;;16.08;100.00
42587;BME280;28216;53.362;-6.288;2023-05-11T08:28:16;101259.81;;;16.28;100.00
42587;BME280;28216;53.362;-6.288;2023-05-11T08:30:42;101259.81;;;16.13;100.00
42587;BME280;28216;53.362;-6.288;2023-05-11T08:33:08;101266.41;;;16.03;100.00
42587;BME280;28216;53.362;-6.288;2023-05-11T08:35:34;101261.72;;;15.61;100.00
42587;BME280;28216;53.362;-6.288;2023-05-11T08:38:00;101264.66;;;15.80;100.00
42587;BME280;28216;53.362;-6.288;2023-05-11T08:40:26;101264.81;;;15.64;100.00
42587;BME280;28216;53.362;-6.288;2023-05-11T08:42:54;101266.31;;;15.96;100.00
42587;BME280;28216;53.362;-6.288;2023-05-11T08:45:21;101258.81;;;16.00;100.00
42587;BME280;28216;53.362;-6.288;2023-05-11T08:47:48;101259.28;;;16.18;100.00
42587;BME280;28216;53.362;-6.288;2023-05-11T08:50:13;101253.41;;;16.52;100.00
42587;BME280;28216;53.362;-6.288;2023-05-11T08:52:41;101248.47;;;17.21;100.00
42587;BME280;28216;53.362;-6.288;2023-05-11T08:55:08;101244.47;;;17.60;100.00
42587;BME280;28216;53.362;-6.288;2023-05-11T08:57:34;101260.19;;;17.61;100.00
42587;BME280;28216;53.362;-6.288;2023-05-11T09:00:02;101255.22;;;17.52;100.00
42587;BME280;28216;53.362;-6.288;2023-05-11T09:02:29;101254.59;;;17.22;100.00
42587;BME280;28216;53.362;-6.288;2023-05-11T09:04:57;101250.38;;;17.55;100.00
42587;BME280;28216;53.362;-6.288;2023-05-11T09:07:23;101253.41;;;18.08;100.00
42587;BME280;28216;53.362;-6.288;2023-05-11T09:09:54;101249.59;;;18.65;100.00
42587;BME280;28216;53.362;-6.288;2023-05-11T09:12:29;101250.41;;;18.24;100.00
42587;BME280;28216;53.362;-6.288;2023-05-11T09:14:55;101251.94;;;17.71;100.00
42587;BME280;28216;53.362;-6.288;2023-05-11T09:17:21;101249.41;;;17.13;100.00
42587;BME280;28216;53.362;-6.288;2023-05-11T09:19:59;101243.63;;;16.67;100.00
42587;BME280;28216;53.362;-6.288;2023-05-11T09:22:25;101242.41;;;16.19;100.00
42587;BME280;28216;53.362;-6.288;2023-05-11T09:24:51;101245.03;;;16.34;100.00
42587;BME280;28216;53.362;-6.288;2023-05-11T09:27:17;101243.03;;;16.36;100.00
42587;BME280;28216;53.362;-6.288;2023-05-11T09:29:43;101246.97;;;16.40;100.00
42587;BME280;28216;53.362;-6.288;2023-05-11T09:32:08;101250.06;;;16.79;100.00
42587;BME280;28216;53.362;-6.288;2023-05-11T09:34:34;101249.50;;;16.48;100.00
42587;BME280;28216;53.362;-6.288;2023-05-11T09:37:00;101256.72;;;16.39;100.00
42587;BME280;28216;53.362;-6.288;2023-05-11T09:39:35;101258.75;;;15.93;100.00
42587;BME280;28216;53.362;-6.288;2023-05-11T09:42:30;101254.53;;;15.69;100.00
42587;BME280;28216;53.362;-6.288;2023-05-11T09:45:03;101252.97;;;15.75;100.00
42587;BME280;28216;53.362;-6.288;2023-05-11T09:47:37;101259.66;;;15.85;100.00
42587;BME280;28216;53.362;-6.288;2023-05-11T09:50:15;101249.69;;;16.32;100.00
42587;BME280;28216;53.362;-6.288;2023-05-11T09:52:49;101243.78;;;17.02;100.00
42587;BME280;28216;53.362;-6.288;2023-05-11T09:55:18;101237.81;;;17.42;100.00
42587;BME280;28216;53.362;-6.288;2023-05-11T09:57:55;101248.38;;;17.85;100.00
42587;BME280;28216;53.362;-6.288;2023-05-11T10:00:21;101243.81;;;17.79;100.00
42587;BME280;28216;53.362;-6.288;2023-05-11T10:03:01;101251.84;;;17.64;100.00
42587;BME280;28216;53.362;-6.288;2023-05-11T10:05:28;101247.44;;;17.22;100.00
42587;BME280;28216;53.362;-6.288;2023-05-11T10:08:00;101246.69;;;16.86;100.00
42587;BME280;28216;53.362;-6.288;2023-05-11T10:10:27;101253.78;;;16.19;100.00
42587;BME280;28216;53.362;-6.288;2023-05-11T10:12:59;101252.88;;;16.27;100.00
42587;BME280;28216;53.362;-6.288;2023-05-11T10:15:30;101255.28;;;16.07;100.00
42587;BME280;28216;53.362;-6.288;2023-05-11T10:20:49;101264.31;;;15.98;100.00
42587;BME280;28216;53.362;-6.288;2023-05-11T10:30:53;101249.69;;;16.32;100.00
42587;BME280;28216;53.362;-6.288;2023-05-11T10:33:20;101244.94;;;16.27;100.00
42587;BME280;28216;53.362;-6.288;2023-05-11T10:35:45;101239.09;;;16.32;100.00
42587;BME280;28216;53.362;-6.288;2023-05-11T10:38:16;101237.72;;;16.65;100.00
42587;BME280;28216;53.362;-6.288;2023-05-11T10:40:42;101241.38;;;16.86;100.00
42587;BME280;28216;53.362;-6.288;2023-05-11T10:46:33;101236.50;;;16.68;100.00
42587;BME280;28216;53.362;-6.288;2023-05-11T10:58:07;101232.41;;;18.13;100.00
42587;BME280;28216;53.362;-6.288;2023-05-11T11:03:19;101230.84;;;17.63;100.00
42587;BME280;28216;53.362;-6.288;2023-05-11T11:05:44;101247.47;;;17.50;100.00
42587;BME280;28216;53.362;-6.288;2023-05-11T11:08:12;101258.09;;;17.07;100.00
42587;BME280;28216;53.362;-6.288;2023-05-11T11:10:39;101263.22;;;16.37;100.00
42587;BME280;28216;53.362;-6.288;2023-05-11T11:13:09;101265.13;;;15.99;100.00
42587;BME280;28216;53.362;-6.288;2023-05-11T11:18:29;101265.59;;;15.27;100.00
42587;BME280;28216;53.362;-6.288;2023-05-11T11:20:56;101265.53;;;15.12;100.00
42587;BME280;28216;53.362;-6.288;2023-05-11T11:23:42;101271.31;;;14.85;100.00
42587;BME280;28216;53.362;-6.288;2023-05-11T11:26:11;101282.94;;;14.68;100.00
42587;BME280;28216;53.362;-6.288;2023-05-11T11:31:31;101278.75;;;14.81;100.00
42587;BME280;28216;53.362;-6.288;2023-05-11T11:34:26;101275.81;;;14.76;100.00
42587;BME280;28216;53.362;-6.288;2023-05-11T11:42:07;101277.28;;;14.40;100.00
42587;BME280;28216;53.362;-6.288;2023-05-11T11:44:34;101279.81;;;14.25;100.00
42587;BME280;28216;53.362;-6.288;2023-05-11T11:50:10;101289.94;;;13.97;100.00
42587;BME280;28216;53.362;-6.288;2023-05-11T11:52:37;101303.28;;;13.95;100.00
42587;BME280;28216;53.362;-6.288;2023-05-11T11:55:03;101300.78;;;14.02;100.00
42587;BME280;28216;53.362;-6.288;2023-05-11T11:59:57;101288.38;;;14.27;100.00
42587;BME280;28216;53.362;-6.288;2023-05-11T12:02:25;101292.78;;;14.51;100.00
42587;BME280;28216;53.362;-6.288;2023-05-11T12:04:56;101288.88;;;14.70;100.00
42587;BME280;28216;53.362;-6.288;2023-05-11T12:07:24;101290.28;;;14.88;100.00
42587;BME280;28216;53.362;-6.288;2023-05-11T12:09:54;101296.00;;;15.00;100.00
42587;BME280;28216;53.362;-6.288;2023-05-11T12:12:20;101298.56;;;15.08;100.00
42587;BME280;28216;53.362;-6.288;2023-05-11T12:15:06;101290.78;;;15.15;100.00
42587;BME280;28216;53.362;-6.288;2023-05-11T12:17:36;101298.28;;;15.26;100.00
42587;BME280;28216;53.362;-6.288;2023-05-11T12:20:13;101298.16;;;15.19;100.00
42587;BME280;28216;53.362;-6.288;2023-05-11T12:22:39;101298.22;;;15.11;100.00
42587;BME280;28216;53.362;-6.288;2023-05-11T12:25:06;101300.03;;;15.11;100.00
42587;BME280;28216;53.362;-6.288;2023-05-11T12:27:32;101298.94;;;15.05;100.00
42587;BME280;28216;53.362;-6.288;2023-05-11T12:30:07;101296.47;;;15.04;100.00
42587;BME280;28216;53.362;-6.288;2023-05-11T12:32:33;101298.16;;;14.97;100.00
42587;BME280;28216;53.362;-6.288;2023-05-11T12:35:06;101304.78;;;14.92;100.00
42587;BME280;28216;53.362;-6.288;2023-05-11T12:37:33;101307.63;;;14.83;100.00
42587;BME280;28216;53.362;-6.288;2023-05-11T12:40:00;101311.13;;;14.75;100.00
42587;BME280;28216;53.362;-6.288;2023-05-11T12:42:25;101318.09;;;14.68;100.00
42587;BME280;28216;53.362;-6.288;2023-05-11T12:44:58;101326.06;;;14.52;100.00
42587;BME280;28216;53.362;-6.288;2023-05-11T12:47:24;101338.78;;;14.48;100.00
42587;BME280;28216;53.362;-6.288;2023-05-11T12:49:50;101344.25;;;14.30;100.00
42587;BME280;28216;53.362;-6.288;2023-05-11T12:52:16;101348.72;;;14.22;100.00
42587;BME280;28216;53.362;-6.288;2023-05-11T12:54:48;101338.69;;;14.09;100.00
42587;BME280;28216;53.362;-6.288;2023-05-11T12:57:27;101328.31;;;13.91;100.00
42587;BME280;28216;53.362;-6.288;2023-05-11T13:02:52;101337.56;;;13.71;100.00
42587;BME280;28216;53.362;-6.288;2023-05-11T13:05:23;101340.03;;;13.64;100.00
42587;BME280;28216;53.362;-6.288;2023-05-11T13:08:03;101338.06;;;13.66;100.00
42587;BME280;28216;53.362;-6.288;2023-05-11T13:10:29;101343.34;;;13.66;100.00
42587;BME280;28216;53.362;-6.288;2023-05-11T13:12:55;101345.47;;;13.71;100.00
42587;BME280;28216;53.362;-6.288;2023-05-11T13:15:22;101343.81;;;13.78;100.00
42587;BME280;28216;53.362;-6.288;2023-05-11T13:17:55;101345.81;;;13.84;100.00
42587;BME280;28216;53.362;-6.288;2023-05-11T13:20:24;101348.41;;;14.00;100.00
42587;BME280;28216;53.362;-6.288;2023-05-11T13:25:27;101347.94;;;14.13;100.00
42587;BME280;28216;53.362;-6.288;2023-05-11T13:27:52;101348.53;;;14.31;100.00
42587;BME280;28216;53.362;-6.288;2023-05-11T13:30:20;101348.31;;;14.57;100.00